createdAt,value
2023-02-11T00:00:22.466Z,-1.40
2023-02-11T00:02:49.228Z,-1.41
2023-02-11T00:05:16.241Z,-1.43
2023-02-11T00:07:43.008Z,-1.48
2023-02-11T00:10:10.179Z,-1.50
2023-02-11T00:12:38.235Z,-1.53
2023-02-11T00:15:06.443Z,-1.58
2023-02-11T00:17:33.453Z,-1.59
2023-02-11T00:20:00.234Z,-1.58
2023-02-11T00:22:27.444Z,-1.56
2023-02-11T00:24:54.338Z,-1.56
2023-02-11T00:27:21.236Z,-1.58
2023-02-11T00:29:47.992Z,-1.60
2023-02-11T00:32:14.809Z,-1.63
2023-02-11T00:34:41.778Z,-1.65
2023-02-11T00:37:08.565Z,-1.70
2023-02-11T00:39:35.303Z,-1.74
2023-02-11T00:42:03.552Z,-1.78
2023-02-11T00:44:30.463Z,-1.79
2023-02-11T00:46:57.279Z,-1.78
2023-02-11T00:49:25.356Z,-1.77
2023-02-11T00:51:52.124Z,-1.76
2023-02-11T00:54:20.240Z,-1.75
2023-02-11T00:56:47.026Z,-1.75
2023-02-11T00:59:13.961Z,-1.77
2023-02-11T01:01:44.116Z,-1.79
2023-02-11T01:04:11.058Z,-1.82
2023-02-11T01:06:37.844Z,-1.86
2023-02-11T01:09:05.522Z,-1.90
2023-02-11T01:11:35.541Z,-1.91
2023-02-11T01:14:02.745Z,-1.90
2023-02-11T01:16:29.567Z,-1.87
2023-02-11T01:18:56.365Z,-1.86
2023-02-11T01:21:23.105Z,-1.84
2023-02-11T01:23:50.703Z,-1.84
2023-02-11T01:26:17.512Z,-1.83
2023-02-11T01:28:44.672Z,-1.82
2023-02-11T01:31:11.552Z,-1.83
2023-02-11T01:33:38.633Z,-1.82
2023-02-11T01:36:07.485Z,-1.80
2023-02-11T01:38:34.938Z,-1.76
2023-02-11T01:41:08.642Z,-1.70
2023-02-11T01:43:39.926Z,-1.66
2023-02-11T01:46:23.475Z,-1.63
2023-02-11T01:49:07.218Z,-1.62
2023-02-11T01:51:40.199Z,-1.61
2023-02-11T01:54:26.421Z,-1.62
2023-02-11T01:57:12.467Z,-1.62
2023-02-11T01:59:48.658Z,-1.59
2023-02-11T02:02:20.279Z,-1.56
2023-02-11T02:04:55.376Z,-1.52
2023-02-11T02:07:33.478Z,-1.51
2023-02-11T02:10:07.695Z,-1.49
2023-02-11T02:12:36.394Z,-1.48
2023-02-11T02:15:19.829Z,-1.48
2023-02-11T02:17:57.735Z,-1.49
2023-02-11T02:20:31.919Z,-1.50
2023-02-11T02:23:14.206Z,-1.46
2023-02-11T02:25:50.714Z,-1.41
2023-02-11T02:28:37.011Z,-1.36
2023-02-11T02:31:20.501Z,-1.33
2023-02-11T02:34:00.639Z,-1.31
2023-02-11T02:36:43.438Z,-1.29
2023-02-11T02:39:20.541Z,-1.28
2023-02-11T02:41:51.131Z,-1.28
2023-02-11T02:44:20.021Z,-1.27
2023-02-11T02:46:46.962Z,-1.24
2023-02-11T02:49:15.844Z,-1.19
2023-02-11T02:51:59.099Z,-1.15
2023-02-11T02:54:42.179Z,-1.09
2023-02-11T02:57:09.936Z,-1.06
2023-02-11T02:59:59.833Z,-1.02
2023-02-11T03:02:41.708Z,-1.00
2023-02-11T03:05:12.219Z,-0.97
2023-02-11T03:07:39.954Z,-0.93
2023-02-11T03:10:17.188Z,-0.87
2023-02-11T03:12:46.385Z,-0.80
2023-02-11T03:15:14.959Z,-0.73
2023-02-11T03:17:44.351Z,-0.68
2023-02-11T03:20:14.705Z,-0.65
2023-02-11T03:22:49.614Z,-0.62
2023-02-11T03:25:16.997Z,-0.62
2023-02-11T03:27:54.260Z,-0.62
2023-02-11T03:30:30.705Z,-0.61
2023-02-11T03:33:08.632Z,-0.58
2023-02-11T03:35:41.944Z,-0.55
2023-02-11T03:38:15.928Z,-0.52
2023-02-11T03:40:45.763Z,-0.51
2023-02-11T03:43:17.193Z,-0.50
2023-02-11T03:45:46.359Z,-0.49
2023-02-11T03:48:20.689Z,-0.51
2023-02-11T03:50:50.462Z,-0.53
2023-02-11T03:53:19.212Z,-0.57
2023-02-11T03:55:48.670Z,-0.59
2023-02-11T03:58:15.841Z,-0.58
2023-02-11T04:00:43.682Z,-0.54
2023-02-11T04:03:11.877Z,-0.51
2023-02-11T04:05:39.182Z,-0.51
2023-02-11T04:08:06.705Z,-0.50
2023-02-11T04:10:33.566Z,-0.51
2023-02-11T04:13:00.264Z,-0.53
2023-02-11T04:15:27.144Z,-0.54
2023-02-11T04:17:53.986Z,-0.58
2023-02-11T04:20:20.983Z,-0.59
2023-02-11T04:22:47.733Z,-0.58
2023-02-11T04:25:14.643Z,-0.57
2023-02-11T04:27:41.386Z,-0.57
2023-02-11T04:30:08.710Z,-0.58
2023-02-11T04:32:35.485Z,-0.59
2023-02-11T04:35:03.095Z,-0.62
2023-02-11T04:37:30.094Z,-0.64
2023-02-11T04:39:56.903Z,-0.67
2023-02-11T04:42:23.816Z,-0.67
2023-02-11T04:44:50.655Z,-0.65
2023-02-11T04:47:18.199Z,-0.62
2023-02-11T04:49:45.121Z,-0.59
2023-02-11T04:52:11.868Z,-0.57
2023-02-11T04:54:38.762Z,-0.59
2023-02-11T04:57:05.739Z,-0.58
2023-02-11T04:59:32.445Z,-0.61
2023-02-11T05:01:59.267Z,-0.59
2023-02-11T05:04:26.119Z,-0.56
2023-02-11T05:06:52.913Z,-0.53
2023-02-11T05:09:19.997Z,-0.52
2023-02-11T05:11:46.802Z,-0.48
2023-02-11T05:14:13.829Z,-0.47
2023-02-11T05:16:40.862Z,-0.47
2023-02-11T05:19:07.650Z,-0.47
2023-02-11T05:21:34.723Z,-0.43
2023-02-11T05:24:01.498Z,-0.38
2023-02-11T05:26:28.372Z,-0.34
2023-02-11T05:28:55.273Z,-0.31
2023-02-11T05:31:22.099Z,-0.26
2023-02-11T05:33:48.833Z,-0.25
2023-02-11T05:36:16.937Z,-0.24
2023-02-11T05:38:43.821Z,-0.18
2023-02-11T05:41:11.615Z,-0.16
2023-02-11T05:43:38.462Z,-0.12
2023-02-11T05:46:06.025Z,-0.11
2023-02-11T05:48:33.202Z,-0.10
2023-02-11T05:51:00.036Z,-0.11
2023-02-11T05:53:26.790Z,-0.12
2023-02-11T05:55:53.894Z,-0.12
2023-02-11T05:58:20.808Z,-0.08
2023-02-11T06:00:47.565Z,-0.06
2023-02-11T06:03:14.342Z,-0.03
2023-02-11T06:05:43.469Z,-0.02
2023-02-11T06:08:10.515Z,-0.02
2023-02-11T06:10:37.535Z,-0.01
2023-02-11T06:13:04.585Z,-0.02
2023-02-11T06:15:31.304Z,-0.01
2023-02-11T06:17:58.049Z,0.03
2023-02-11T06:20:24.946Z,0.06
2023-02-11T06:22:51.687Z,0.10
2023-02-11T06:25:18.588Z,0.13
2023-02-11T06:27:45.471Z,0.14
2023-02-11T06:30:12.942Z,0.15
2023-02-11T06:32:44.580Z,0.15
2023-02-11T06:35:13.564Z,0.17
2023-02-11T06:37:41.763Z,0.20
2023-02-11T06:40:09.755Z,0.22
2023-02-11T06:42:38.853Z,0.24
2023-02-11T06:45:07.787Z,0.25
2023-02-11T06:47:34.642Z,0.26
2023-02-11T06:50:01.367Z,0.26
2023-02-11T06:52:28.180Z,0.28
2023-02-11T06:54:54.950Z,0.33
2023-02-11T06:57:21.648Z,0.36
2023-02-11T06:59:48.959Z,0.40
2023-02-11T07:02:16.781Z,0.43
2023-02-11T07:04:44.763Z,0.44
2023-02-11T07:07:11.486Z,0.48
2023-02-11T07:09:38.266Z,0.49
2023-02-11T07:12:05.107Z,0.52
2023-02-11T07:14:31.786Z,0.58
2023-02-11T07:16:58.548Z,0.64
2023-02-11T07:19:25.292Z,0.67
2023-02-11T07:21:51.969Z,0.69
2023-02-11T07:24:18.836Z,0.72
2023-02-11T07:26:45.650Z,0.74
2023-02-11T07:29:12.456Z,0.75
2023-02-11T07:31:40.413Z,0.77
2023-02-11T07:34:07.303Z,0.82
2023-02-11T07:36:34.236Z,0.89
2023-02-11T07:39:00.994Z,0.99
2023-02-11T07:41:28.172Z,1.09
2023-02-11T07:43:55.321Z,1.15
2023-02-11T07:46:25.361Z,1.21
2023-02-11T07:48:53.081Z,1.29
2023-02-11T07:51:25.848Z,1.40
2023-02-11T07:53:53.562Z,1.62
2023-02-11T07:56:21.553Z,1.86
2023-02-11T07:58:48.954Z,2.07
2023-02-11T08:01:22.581Z,2.26
2023-02-11T08:03:49.496Z,2.43
2023-02-11T08:06:18.655Z,2.59
2023-02-11T08:08:45.929Z,2.79
2023-02-11T08:11:15.533Z,3.09
2023-02-11T08:13:42.740Z,3.37
2023-02-11T08:16:10.409Z,3.57
2023-02-11T08:18:37.169Z,3.68
2023-02-11T08:21:06.117Z,3.77
2023-02-11T08:23:33.458Z,3.85
2023-02-11T08:26:03.705Z,4.00
2023-02-11T08:28:30.773Z,4.26
2023-02-11T08:30:57.778Z,4.26
2023-02-11T08:33:24.516Z,4.17
2023-02-11T08:35:51.644Z,4.08
2023-02-11T08:38:18.400Z,3.96
2023-02-11T08:40:45.141Z,3.81
2023-02-11T08:43:11.887Z,3.62
2023-02-11T08:45:38.648Z,3.47
2023-02-11T08:48:05.515Z,3.33
2023-02-11T08:50:32.374Z,3.24
2023-02-11T08:52:59.104Z,3.23
2023-02-11T08:55:25.878Z,3.26
2023-02-11T08:57:52.705Z,3.30
2023-02-11T09:00:19.878Z,3.35
2023-02-11T09:02:46.579Z,3.32
2023-02-11T09:05:14.059Z,3.30
2023-02-11T09:07:40.866Z,3.26
2023-02-11T09:10:08.754Z,3.24
2023-02-11T09:12:35.651Z,3.22
2023-02-11T09:15:02.343Z,3.27
2023-02-11T09:17:29.129Z,3.27
2023-02-11T09:19:55.833Z,3.24
2023-02-11T09:22:22.641Z,3.24
2023-02-11T09:24:49.443Z,3.24
2023-02-11T09:27:16.166Z,3.24
2023-02-11T09:29:43.111Z,3.25
2023-02-11T09:32:10.207Z,3.26
2023-02-11T09:34:37.260Z,3.29
2023-02-11T09:37:04.104Z,3.37
2023-02-11T09:39:30.983Z,3.43
2023-02-11T09:42:05.588Z,3.44
2023-02-11T09:44:35.225Z,3.44
2023-02-11T09:47:07.393Z,3.45
2023-02-11T09:49:43.070Z,3.42
2023-02-11T09:52:30.839Z,3.39
2023-02-11T09:55:00.304Z,3.40
2023-02-11T09:57:32.458Z,3.43
2023-02-11T10:00:00.530Z,3.44
2023-02-11T10:02:32.390Z,3.46
2023-02-11T10:05:17.696Z,3.46
2023-02-11T10:07:59.445Z,3.48
2023-02-11T10:10:26.826Z,3.55
2023-02-11T10:13:03.170Z,3.66
2023-02-11T10:15:45.040Z,3.79
2023-02-11T10:18:20.116Z,3.90
2023-02-11T10:21:12.928Z,3.94
2023-02-11T10:23:45.461Z,4.06
2023-02-11T10:26:16.180Z,4.16
2023-02-11T10:28:47.029Z,4.24
2023-02-11T10:31:28.978Z,4.29
2023-02-11T10:34:00.277Z,4.39
2023-02-11T10:36:32.577Z,4.53
2023-02-11T10:39:12.446Z,4.66
2023-02-11T10:41:45.321Z,4.70
2023-02-11T10:44:24.308Z,4.75
2023-02-11T10:46:52.479Z,4.82
2023-02-11T10:49:44.218Z,4.89
2023-02-11T10:52:16.856Z,5.10
2023-02-11T10:55:03.319Z,5.44
2023-02-11T10:57:36.313Z,5.67
2023-02-11T11:00:28.812Z,5.81
2023-02-11T11:02:58.945Z,5.84
2023-02-11T11:05:31.743Z,6.06
2023-02-11T11:08:01.950Z,6.40
2023-02-11T11:10:35.789Z,6.63
2023-02-11T11:13:03.359Z,6.61
2023-02-11T11:15:31.988Z,6.47
2023-02-11T11:18:22.547Z,6.21
2023-02-11T11:21:14.828Z,5.91
2023-02-11T11:23:52.498Z,5.53
2023-02-11T11:26:20.040Z,5.24
2023-02-11T11:28:46.821Z,4.98
2023-02-11T11:31:19.122Z,4.77
2023-02-11T11:33:47.868Z,4.58
2023-02-11T11:36:21.451Z,4.46
2023-02-11T11:39:01.047Z,4.35
2023-02-11T11:41:29.191Z,4.27
2023-02-11T11:44:25.322Z,4.18
2023-02-11T11:47:12.374Z,4.14
2023-02-11T11:49:39.233Z,4.11
2023-02-11T11:52:20.583Z,4.08
2023-02-11T11:54:55.438Z,4.05
2023-02-11T11:57:29.675Z,4.02
2023-02-11T11:59:58.133Z,3.99
2023-02-11T12:02:41.725Z,3.98
2023-02-11T12:05:20.186Z,3.97
2023-02-11T12:07:54.297Z,3.93
2023-02-11T12:10:35.571Z,3.89
2023-02-11T12:13:33.299Z,3.85
2023-02-11T12:16:30.925Z,3.82
2023-02-11T12:19:14.335Z,3.82
2023-02-11T12:21:41.037Z,3.82
2023-02-11T12:24:30.733Z,3.81
2023-02-11T12:27:10.902Z,3.82
2023-02-11T12:29:58.237Z,3.83
2023-02-11T12:32:39.908Z,3.81
2023-02-11T12:35:13.320Z,3.77
2023-02-11T12:37:56.462Z,3.74
2023-02-11T12:40:35.113Z,3.69
2023-02-11T12:43:20.622Z,3.66
2023-02-11T12:46:18.407Z,3.64
2023-02-11T12:49:08.284Z,3.60
2023-02-11T12:51:49.392Z,3.55
2023-02-11T12:54:31.886Z,3.54
2023-02-11T12:57:14.213Z,3.52
2023-02-11T12:59:41.201Z,3.50
2023-02-11T13:02:19.077Z,3.44
2023-02-11T13:04:54.248Z,3.42
2023-02-11T13:07:31.114Z,3.39
2023-02-11T13:10:08.134Z,3.34
2023-02-11T13:12:52.423Z,3.31
2023-02-11T13:15:19.349Z,3.29
2023-02-11T13:17:52.862Z,3.25
2023-02-11T13:20:42.905Z,3.21
2023-02-11T13:23:23.490Z,3.17
2023-02-11T13:25:58.002Z,3.14
2023-02-11T13:28:46.671Z,3.14
2023-02-11T13:31:16.466Z,3.13
2023-02-11T13:33:44.487Z,3.14
2023-02-11T13:36:15.205Z,3.13
2023-02-11T13:38:52.964Z,3.14
2023-02-11T13:41:27.862Z,3.12
2023-02-11T13:44:00.440Z,3.12
2023-02-11T13:46:30.838Z,3.14
2023-02-11T13:48:58.383Z,3.14
2023-02-11T13:51:42.473Z,3.13
2023-02-11T13:54:22.735Z,3.12
2023-02-11T13:57:24.655Z,3.09
2023-02-11T13:59:55.414Z,3.09
2023-02-11T14:02:53.693Z,3.09
2023-02-11T14:05:42.089Z,3.10
2023-02-11T14:08:25.435Z,3.13
2023-02-11T14:10:56.212Z,3.11
2023-02-11T14:13:31.823Z,3.11
2023-02-11T14:16:18.680Z,3.14
2023-02-11T14:18:55.408Z,3.17
2023-02-11T14:21:25.965Z,3.19
2023-02-11T14:23:56.107Z,3.19
2023-02-11T14:26:35.049Z,3.20
2023-02-11T14:29:15.511Z,3.19
2023-02-11T14:31:54.430Z,3.15
2023-02-11T14:34:40.288Z,3.10
2023-02-11T14:37:22.786Z,3.06
2023-02-11T14:40:11.080Z,2.99
2023-02-11T14:42:38.461Z,2.89
2023-02-11T14:45:11.096Z,2.81
2023-02-11T14:48:13.356Z,2.75
2023-02-11T14:51:00.556Z,2.70
2023-02-11T14:53:30.623Z,2.66
2023-02-11T14:55:57.625Z,2.60
2023-02-11T14:58:28.179Z,2.57
2023-02-11T15:01:00.278Z,2.56
2023-02-11T15:03:33.486Z,2.52
2023-02-11T15:06:12.941Z,2.47
2023-02-11T15:08:47.401Z,2.40
2023-02-11T15:11:18.218Z,2.38
2023-02-11T15:13:49.803Z,2.34
2023-02-11T15:16:22.085Z,2.30
2023-02-11T15:18:54.527Z,2.25
2023-02-11T15:21:27.656Z,2.22
2023-02-11T15:24:00.558Z,2.22
2023-02-11T15:26:28.010Z,2.22
2023-02-11T15:28:56.373Z,2.20
2023-02-11T15:31:25.590Z,2.17
2023-02-11T15:33:53.277Z,2.14
2023-02-11T15:36:29.016Z,2.11
2023-02-11T15:39:19.740Z,2.10
2023-02-11T15:41:46.564Z,2.09
2023-02-11T15:44:30.640Z,2.09
2023-02-11T15:46:58.162Z,2.06
2023-02-11T15:49:26.591Z,2.04
2023-02-11T15:51:57.011Z,2.03
2023-02-11T15:54:29.607Z,2.04
2023-02-11T15:57:03.843Z,2.04
2023-02-11T15:59:35.569Z,2.01
2023-02-11T16:02:10.424Z,1.97
2023-02-11T16:04:38.078Z,1.96
2023-02-11T16:07:05.457Z,1.95
2023-02-11T16:09:35.211Z,1.97
2023-02-11T16:12:07.604Z,1.94
2023-02-11T16:14:37.416Z,1.90
2023-02-11T16:17:07.439Z,1.86
2023-02-11T16:19:35.865Z,1.82
2023-02-11T16:22:09.360Z,1.81
2023-02-11T16:24:38.434Z,1.80
2023-02-11T16:27:18.998Z,1.78
2023-02-11T16:29:48.722Z,1.76
2023-02-11T16:32:17.771Z,1.74
2023-02-11T16:34:45.205Z,1.74
2023-02-11T16:37:12.286Z,1.75
2023-02-11T16:39:39.264Z,1.76
2023-02-11T16:42:07.849Z,1.77
2023-02-11T16:44:35.577Z,1.75
2023-02-11T16:47:04.041Z,1.76
2023-02-11T16:49:35.416Z,1.79
2023-02-11T16:52:06.876Z,1.81
2023-02-11T16:54:34.129Z,1.82
2023-02-11T16:57:02.301Z,1.81
2023-02-11T16:59:29.550Z,1.82
2023-02-11T17:01:57.800Z,1.85
2023-02-11T17:04:30.617Z,1.88
2023-02-11T17:06:58.631Z,1.91
2023-02-11T17:09:30.554Z,1.92
2023-02-11T17:11:58.115Z,1.91
2023-02-11T17:14:24.825Z,1.90
2023-02-11T17:16:51.905Z,1.91
2023-02-11T17:19:21.893Z,1.92
2023-02-11T17:21:51.799Z,1.94
2023-02-11T17:24:19.892Z,1.98
2023-02-11T17:26:47.301Z,2.01
2023-02-11T17:29:16.896Z,1.99
2023-02-11T17:31:43.987Z,1.98
2023-02-11T17:34:11.398Z,1.97
2023-02-11T17:36:38.477Z,1.98
2023-02-11T17:39:08.010Z,2.01
2023-02-11T17:41:37.314Z,2.03
2023-02-11T17:44:05.451Z,2.06
2023-02-11T17:46:34.762Z,2.07
2023-02-11T17:49:02.128Z,2.09
2023-02-11T17:51:31.662Z,2.12
2023-02-11T17:54:02.023Z,2.16
2023-02-11T17:56:31.393Z,2.18
2023-02-11T17:58:58.117Z,2.19
2023-02-11T18:01:28.018Z,2.19
2023-02-11T18:03:55.180Z,2.20
2023-02-11T18:06:22.173Z,2.24
2023-02-11T18:08:48.919Z,2.28
2023-02-11T18:11:16.699Z,2.32
2023-02-11T18:13:45.673Z,2.34
2023-02-11T18:16:16.045Z,2.37
2023-02-11T18:18:43.607Z,2.40
2023-02-11T18:21:15.854Z,2.44
2023-02-11T18:23:43.868Z,2.46
2023-02-11T18:26:12.366Z,2.48
2023-02-11T18:28:39.897Z,2.49
2023-02-11T18:31:08.070Z,2.52
2023-02-11T18:33:37.206Z,2.55
2023-02-11T18:36:07.840Z,2.59
2023-02-11T18:38:34.997Z,2.60
2023-02-11T18:41:01.936Z,2.62
2023-02-11T18:43:33.779Z,2.64
2023-02-11T18:46:02.597Z,2.66
2023-02-11T18:48:29.756Z,2.69
2023-02-11T18:50:56.517Z,2.73
2023-02-11T18:53:24.755Z,2.76
2023-02-11T18:55:52.780Z,2.79
2023-02-11T18:58:21.441Z,2.79
2023-02-11T19:00:50.050Z,2.79
2023-02-11T19:03:17.310Z,2.79
2023-02-11T19:05:46.595Z,2.81
2023-02-11T19:08:14.148Z,2.83
2023-02-11T19:10:43.186Z,2.85
2023-02-11T19:13:10.423Z,2.87
2023-02-11T19:15:46.271Z,2.86
2023-02-11T19:18:16.017Z,2.86
2023-02-11T19:20:44.118Z,2.85
2023-02-11T19:23:11.203Z,2.86
2023-02-11T19:25:44.555Z,2.85
2023-02-11T19:28:11.758Z,2.89
2023-02-11T19:30:38.933Z,2.91
2023-02-11T19:33:07.213Z,2.94
2023-02-11T19:35:35.778Z,2.96
2023-02-11T19:38:04.206Z,2.96
2023-02-11T19:40:31.462Z,2.96
2023-02-11T19:42:58.644Z,2.98
2023-02-11T19:45:26.964Z,2.99
2023-02-11T19:47:55.763Z,3.02
2023-02-11T19:50:23.109Z,3.04
2023-02-11T19:52:50.018Z,3.05
2023-02-11T19:55:16.783Z,3.05
2023-02-11T19:57:44.921Z,3.07
2023-02-11T20:00:12.249Z,3.10
2023-02-11T20:02:40.522Z,3.12
2023-02-11T20:05:07.768Z,3.15
2023-02-11T20:07:35.228Z,3.17
2023-02-11T20:10:02.904Z,3.18
2023-02-11T20:12:29.689Z,3.16
2023-02-11T20:14:56.678Z,3.17
2023-02-11T20:17:23.478Z,3.19
2023-02-11T20:19:50.397Z,3.21
2023-02-11T20:22:17.404Z,3.23
2023-02-11T20:24:44.896Z,3.27
2023-02-11T20:27:12.924Z,3.31
2023-02-11T20:29:40.074Z,3.34
2023-02-11T20:32:07.527Z,3.34
2023-02-11T20:34:34.535Z,3.34
2023-02-11T20:37:02.395Z,3.34
2023-02-11T20:39:29.172Z,3.37
2023-02-11T20:41:57.639Z,3.42
2023-02-11T20:44:24.707Z,3.46
2023-02-11T20:46:54.250Z,3.49
2023-02-11T20:49:25.325Z,3.50
2023-02-11T20:51:53.952Z,3.50
2023-02-11T20:54:22.510Z,3.52
2023-02-11T20:56:51.302Z,3.55
2023-02-11T20:59:18.878Z,3.57
2023-02-11T21:04:32.936Z,3.64
2023-02-11T21:07:01.691Z,3.66
2023-02-11T21:09:33.445Z,3.68
2023-02-11T21:12:01.120Z,3.69
2023-02-11T21:14:28.152Z,3.71
2023-02-11T21:16:57.715Z,3.77
2023-02-11T21:19:25.026Z,3.85
2023-02-11T21:21:51.870Z,3.91
2023-02-11T21:24:18.651Z,3.97
2023-02-11T21:26:45.456Z,3.98
2023-02-11T21:29:12.366Z,3.96
2023-02-11T21:31:40.189Z,3.99
2023-02-11T21:34:07.713Z,4.05
2023-02-11T21:36:34.600Z,4.08
2023-02-11T21:39:03.861Z,4.11
2023-02-11T21:41:31.080Z,4.15
2023-02-11T21:43:58.176Z,4.20
2023-02-11T21:46:25.009Z,4.23
2023-02-11T21:48:52.305Z,4.24
2023-02-11T21:51:22.468Z,4.27
2023-02-11T21:53:54.607Z,4.33
2023-02-11T21:56:22.464Z,4.36
2023-02-11T21:58:53.091Z,4.38
2023-02-11T22:01:23.326Z,4.42
2023-02-11T22:03:50.845Z,4.46
2023-02-11T22:06:23.073Z,4.47
2023-02-11T22:08:50.257Z,4.50
2023-02-11T22:11:17.343Z,4.51
2023-02-11T22:13:44.197Z,4.51
2023-02-11T22:16:15.522Z,4.55
2023-02-11T22:18:46.455Z,4.58
2023-02-11T22:21:17.034Z,4.57
2023-02-11T22:23:44.682Z,4.58
2023-02-11T22:26:15.011Z,4.61
2023-02-11T22:28:42.826Z,4.63
2023-02-11T22:31:16.953Z,4.64
2023-02-11T22:33:44.132Z,4.65
2023-02-11T22:36:21.522Z,4.65
2023-02-11T22:38:49.286Z,4.66
2023-02-11T22:41:17.269Z,4.65
2023-02-11T22:43:45.036Z,4.67
2023-02-11T22:46:14.594Z,4.68
2023-02-11T22:48:41.809Z,4.71
2023-02-11T22:51:12.456Z,4.73
2023-02-11T22:53:39.593Z,4.76
2023-02-11T22:56:08.753Z,4.80
2023-02-11T22:58:37.031Z,4.80
2023-02-11T23:01:05.445Z,4.76
2023-02-11T23:03:33.430Z,4.73
2023-02-11T23:06:01.126Z,4.72
2023-02-11T23:08:30.011Z,4.71
2023-02-11T23:11:02.904Z,4.71
2023-02-11T23:13:29.708Z,4.73
2023-02-11T23:15:56.637Z,4.73
2023-02-11T23:18:23.605Z,4.75
2023-02-11T23:20:50.303Z,4.74
2023-02-11T23:23:17.010Z,4.71
2023-02-11T23:25:44.259Z,4.72
2023-02-11T23:28:12.460Z,4.77
2023-02-11T23:30:39.495Z,4.79
2023-02-11T23:33:06.273Z,4.82
2023-02-11T23:35:33.282Z,4.81
2023-02-11T23:38:00.103Z,4.81
2023-02-11T23:40:26.849Z,4.80
2023-02-11T23:42:53.646Z,4.80
2023-02-11T23:45:20.614Z,4.83
2023-02-11T23:47:47.694Z,4.84
2023-02-11T23:50:14.876Z,4.88
2023-02-11T23:52:41.955Z,4.88
2023-02-11T23:55:09.478Z,4.87
2023-02-11T23:57:36.303Z,4.85
